Time;durP1;ratioP1;P1;durP2;ratioP2;P2;SDS_P1;SDS_P2;PMS_P1;PMS_P2;Temp;Humidity;BMP_temperature;BMP_pressure;BME280_temperature;BME280_humidity;BME280_pressure;Samples;Min_cycle;Max_cycle;Signal;HPM_P1;HPM_P2
2023/01/29 00:00:09;;;;;;;121.55;49.45;;;1.50;99.90;;;;;;5118389;28;20019;-65
2023/01/29 00:02:38;;;;;;;125.22;47.92;;;1.40;99.90;;;;;;5118118;28;20044;-65
2023/01/29 00:05:05;;;;;;;123.85;50.00;;;1.50;99.90;;;;;;5118135;28;20485;-65
2023/01/29 00:07:32;;;;;;;141.00;54.88;;;1.50;99.90;;;;;;5118086;28;20036;-65
2023/01/29 00:09:58;;;;;;;126.05;49.92;;;1.50;99.90;;;;;;5118202;28;20073;-65
2023/01/29 00:12:24;;;;;;;131.02;52.45;;;1.50;99.90;;;;;;5118118;28;20027;-65
2023/01/29 00:14:49;;;;;;;134.60;52.35;;;1.50;99.90;;;;;;5117933;28;20027;-65
2023/01/29 00:17:15;;;;;;;125.35;49.92;;;1.50;99.90;;;;;;5117647;28;20465;-65
2023/01/29 00:19:41;;;;;;;135.60;52.33;;;1.60;99.90;;;;;;5118053;28;20055;-65
2023/01/29 00:22:08;;;;;;;133.98;53.60;;;1.60;99.90;;;;;;5117828;28;20106;-65
2023/01/29 00:24:34;;;;;;;129.35;50.30;;;1.60;99.90;;;;;;5117911;28;20097;-65
2023/01/29 00:26:59;;;;;;;143.55;53.75;;;1.50;99.90;;;;;;5117602;28;20465;-65
2023/01/29 00:29:26;;;;;;;133.02;54.08;;;1.50;99.90;;;;;;5117860;28;20023;-65
2023/01/29 00:31:51;;;;;;;126.85;52.65;;;1.40;99.90;;;;;;5117638;28;20045;-65
2023/01/29 00:34:17;;;;;;;124.55;51.50;;;1.50;99.90;;;;;;5117786;28;20039;-65
2023/01/29 00:36:44;;;;;;;119.95;49.17;;;1.50;99.90;;;;;;5116330;28;20031;-65
2023/01/29 00:39:16;;;;;;;124.00;54.75;;;1.60;99.90;;;;;;5117555;28;20059;-65
2023/01/29 00:47:29;;;;;;;154.05;60.55;;;1.50;99.90;;;;;;5117391;28;20058;-65
2023/01/29 00:49:56;;;;;;;134.13;55.55;;;1.60;99.90;;;;;;5116127;28;20039;-65
2023/01/29 00:52:22;;;;;;;144.75;54.13;;;1.50;99.90;;;;;;5115311;28;20131;-65
2023/01/29 00:54:49;;;;;;;144.65;59.55;;;1.50;99.90;;;;;;5117139;28;20032;-65
2023/01/29 00:57:15;;;;;;;142.73;58.33;;;1.50;99.90;;;;;;5115933;28;20034;-65
2023/01/29 00:59:41;;;;;;;161.70;66.60;;;1.50;99.90;;;;;;5117226;28;20418;-65
2023/01/29 01:04:51;;;;;;;147.45;63.08;;;1.50;99.90;;;;;;5115625;28;20024;-65
2023/01/29 01:07:18;;;;;;;152.45;61.25;;;1.50;99.90;;;;;;5116885;28;20031;-65
2023/01/29 01:12:28;;;;;;;159.60;62.22;;;1.50;99.90;;;;;;5115512;28;20035;-65
2023/01/29 01:14:54;;;;;;;145.77;58.45;;;1.60;99.90;;;;;;5116863;28;20032;-65
2023/01/29 01:17:20;;;;;;;148.18;59.70;;;1.60;99.90;;;;;;5115285;28;20053;-65
2023/01/29 01:19:46;;;;;;;142.38;55.83;;;1.60;99.90;;;;;;5115381;28;20020;-65
2023/01/29 01:22:12;;;;;;;149.45;60.30;;;1.50;99.90;;;;;;5116641;28;20024;-65
2023/01/29 01:24:38;;;;;;;163.60;63.65;;;1.50;99.90;;;;;;5115386;28;20038;-65
2023/01/29 01:27:05;;;;;;;157.90;61.58;;;1.40;99.90;;;;;;5116449;28;20024;-65
2023/01/29 01:29:31;;;;;;;167.05;68.70;;;1.50;99.90;;;;;;5115259;28;20055;-65
2023/01/29 01:31:58;;;;;;;155.95;61.78;;;1.40;99.90;;;;;;5116639;28;20034;-65
2023/01/29 01:34:25;;;;;;;161.02;67.63;;;1.40;99.90;;;;;;5116366;28;20035;-65
2023/01/29 01:36:52;;;;;;;162.95;68.15;;;1.40;99.90;;;;;;5115235;28;20456;-65
2023/01/29 01:39:18;;;;;;;149.75;62.45;;;1.40;99.90;;;;;;5116368;28;20028;-65
2023/01/29 01:41:45;;;;;;;150.95;64.10;;;1.40;99.90;;;;;;5114934;28;20061;-65
2023/01/29 01:44:49;;;;;;;146.60;58.38;;;1.40;99.90;;;;;;5116407;28;20027;-65
2023/01/29 01:47:16;;;;;;;123.93;52.08;;;1.50;99.90;;;;;;5114923;28;20024;-65
2023/01/29 01:49:43;;;;;;;134.35;57.53;;;1.60;99.90;;;;;;5116177;28;20032;-65
2023/01/29 01:52:10;;;;;;;135.07;57.33;;;1.60;99.90;;;;;;5116014;28;20027;-65
2023/01/29 01:54:36;;;;;;;138.25;58.08;;;1.60;99.90;;;;;;5114766;28;20472;-65
2023/01/29 01:57:10;;;;;;;116.75;48.90;;;1.40;99.90;;;;;;5115847;28;20035;-65
2023/01/29 01:59:39;;;;;;;110.47;48.60;;;1.50;99.90;;;;;;5114647;28;20034;-64
2023/01/29 02:10:36;;;;;;;140.13;54.60;;;1.40;99.90;;;;;;5115891;28;20453;-65
2023/01/29 02:13:05;;;;;;;144.07;59.35;;;1.30;99.90;;;;;;5114510;28;20031;-65
2023/01/29 02:15:32;;;;;;;139.48;53.65;;;1.40;99.90;;;;;;5115767;28;20067;-65
2023/01/29 02:17:58;;;;;;;134.15;51.55;;;1.50;99.90;;;;;;5115334;28;20043;-65
2023/01/29 02:20:32;;;;;;;124.28;51.88;;;1.50;99.90;;;;;;5115775;28;20027;-65
2023/01/29 02:23:40;;;;;;;124.13;49.25;;;1.60;99.90;;;;;;5115651;28;20028;-65
2023/01/29 02:26:25;;;;;;;128.50;52.92;;;1.50;99.90;;;;;;5115416;28;20023;-65
2023/01/29 02:29:23;;;;;;;137.27;52.20;;;1.50;99.90;;;;;;5115417;28;20450;-65
2023/01/29 02:32:20;;;;;;;114.00;49.15;;;1.50;99.90;;;;;;5114084;28;20023;-65
2023/01/29 02:38:30;;;;;;;122.68;49.58;;;1.50;99.90;;;;;;5115268;28;20062;-65
2023/01/29 02:41:02;;;;;;;128.85;51.55;;;1.40;99.90;;;;;;5058620;28;20039;-65
2023/01/29 02:43:56;;;;;;;113.30;47.72;;;1.40;99.90;;;;;;5115310;28;20066;-65
2023/01/29 02:46:33;;;;;;;106.68;46.05;;;1.40;99.90;;;;;;5113781;28;20024;-65
2023/01/29 02:49:39;;;;;;;102.15;45.80;;;1.40;99.90;;;;;;5113906;28;20024;-65
2023/01/29 02:52:24;;;;;;;98.30;43.15;;;1.20;99.90;;;;;;5111096;28;20096;-65
2023/01/29 02:55:09;;;;;;;97.35;44.65;;;1.40;99.90;;;;;;5115069;28;20526;-65
2023/01/29 02:57:39;;;;;;;106.63;46.13;;;1.40;99.90;;;;;;5114986;27;20557;-65
2023/01/29 03:00:19;;;;;;;111.35;48.50;;;1.50;99.90;;;;;;5113723;28;20027;-65
2023/01/29 03:03:06;;;;;;;104.03;47.00;;;1.50;99.90;;;;;;5113622;28;20040;-65
2023/01/29 03:06:06;;;;;;;98.57;44.63;;;1.40;99.90;;;;;;5115016;28;20020;-65
2023/01/29 03:08:41;;;;;;;106.57;45.65;;;1.50;99.90;;;;;;5115080;28;20030;-65
2023/01/29 03:11:12;;;;;;;111.90;47.58;;;1.60;99.90;;;;;;5113545;28;20374;-65
2023/01/29 03:13:47;;;;;;;124.85;49.75;;;1.50;99.90;;;;;;5113563;28;20062;-65
2023/01/29 03:16:21;;;;;;;113.55;47.30;;;1.50;99.90;;;;;;5116379;28;20156;-65
2023/01/29 03:19:10;;;;;;;106.20;47.50;;;1.50;99.90;;;;;;5117580;28;20031;-65
2023/01/29 03:21:50;;;;;;;103.50;46.00;;;1.50;99.90;;;;;;5117693;28;20023;-65
2023/01/29 03:33:41;;;;;;;113.10;47.10;;;1.40;99.90;;;;;;5117659;28;20035;-65
2023/01/29 03:36:21;;;;;;;104.68;45.95;;;1.40;99.90;;;;;;5117433;28;20373;-65
2023/01/29 03:38:47;;;;;;;117.05;47.28;;;1.40;99.90;;;;;;5118731;28;20031;-65
2023/01/29 03:41:18;;;;;;;114.18;47.00;;;1.40;99.90;;;;;;5117246;28;20023;-65
2023/01/29 03:44:18;;;;;;;119.13;48.83;;;1.40;99.90;;;;;;5118646;28;20024;-65
2023/01/29 03:46:55;;;;;;;112.65;48.58;;;1.40;99.90;;;;;;5117375;28;20039;-65
2023/01/29 03:49:53;;;;;;;112.78;47.47;;;1.40;99.90;;;;;;5117219;28;20035;-65
2023/01/29 03:52:27;;;;;;;119.45;49.85;;;1.50;99.90;;;;;;5118499;28;20030;-65
2023/01/29 03:55:22;;;;;;;115.97;50.33;;;1.40;99.90;;;;;;5117160;28;20430;-65
2023/01/29 03:57:56;;;;;;;117.03;49.90;;;1.40;99.90;;;;;;5099367;28;20047;-65
2023/01/29 04:00:40;;;;;;;131.68;51.20;;;1.40;99.90;;;;;;5117039;28;20035;-65
2023/01/29 04:03:35;;;;;;;119.93;49.47;;;1.40;99.90;;;;;;5116766;28;20526;-65
2023/01/29 04:06:12;;;;;;;126.22;49.35;;;1.40;99.90;;;;;;5117036;28;20389;-65
2023/01/29 04:08:57;;;;;;;124.75;50.83;;;1.40;99.90;;;;;;5116824;28;20108;-65
2023/01/29 04:11:27;;;;;;;137.25;52.65;;;1.40;99.90;;;;;;5116869;28;20034;-65
2023/01/29 04:13:55;;;;;;;129.77;51.13;;;1.50;99.90;;;;;;5118101;27;20149;-65
2023/01/29 04:16:26;;;;;;;121.38;46.83;;;1.40;99.90;;;;;;5117998;28;20042;-65
2023/01/29 04:19:15;;;;;;;112.68;47.35;;;1.30;99.90;;;;;;5109552;28;20031;-65
2023/01/29 04:21:44;;;;;;;115.32;47.70;;;1.30;99.90;;;;;;5116916;28;20101;-65
2023/01/29 04:24:12;;;;;;;111.60;47.10;;;1.30;99.90;;;;;;5116643;28;20376;-65
2023/01/29 04:26:54;;;;;;;109.63;45.75;;;1.30;99.90;;;;;;5115581;28;20035;-65
2023/01/29 04:29:49;;;;;;;100.07;44.40;;;1.40;99.90;;;;;;5116491;28;20311;-65
2023/01/29 04:32:31;;;;;;;113.75;46.22;;;1.40;99.90;;;;;;5116442;28;20031;-65
2023/01/29 04:35:15;;;;;;;;;;;1.30;99.90;;;;;;5116886;28;20219;-65
2023/01/29 04:37:57;;;;;;;107.10;46.88;;;1.30;99.90;;;;;;5116260;28;20379;-65
2023/01/29 04:40:36;;;;;;;97.57;44.28;;;1.30;99.90;;;;;;5117660;28;20016;-65
2023/01/29 04:43:26;;;;;;;100.40;45.00;;;1.40;99.90;;;;;;5117557;28;20028;-65
2023/01/29 04:46:07;;;;;;;103.63;44.25;;;1.30;99.90;;;;;;5117424;28;20020;-65
2023/01/29 04:48:45;;;;;;;94.05;42.30;;;1.50;99.90;;;;;;5117505;28;20047;-65
2023/01/29 04:51:30;;;;;;;100.47;45.45;;;1.40;99.90;;;;;;5117394;28;20032;-65
2023/01/29 04:53:58;;;;;;;97.53;44.45;;;1.40;99.90;;;;;;5117438;27;20519;-65
2023/01/29 04:56:48;;;;;;;96.78;43.67;;;1.40;99.90;;;;;;5116941;28;20524;-65
2023/01/29 04:59:21;;;;;;;109.97;46.45;;;1.30;99.90;;;;;;5117304;28;20019;-65
2023/01/29 05:01:48;;;;;;;99.22;42.60;;;1.40;99.90;;;;;;5116911;28;20052;-65
2023/01/29 05:04:18;;;;;;;92.82;42.50;;;1.40;99.90;;;;;;5117143;28;20031;-65
2023/01/29 05:06:46;;;;;;;97.03;44.20;;;1.40;99.90;;;;;;5116906;28;20027;-65
2023/01/29 05:09:15;;;;;;;104.20;44.17;;;1.50;99.90;;;;;;5117018;28;20027;-65
2023/01/29 05:11:42;;;;;;;100.43;42.70;;;1.50;99.90;;;;;;5116956;28;20059;-65
2023/01/29 05:14:11;;;;;;;101.82;44.80;;;1.50;99.90;;;;;;5116919;28;20150;-65
2023/01/29 05:16:42;;;;;;;98.32;44.08;;;1.50;99.90;;;;;;5116689;28;20027;-65
2023/01/29 05:19:10;;;;;;;95.80;43.25;;;1.40;99.90;;;;;;5116852;27;20028;-65
2023/01/29 05:21:38;;;;;;;96.18;42.60;;;1.40;99.90;;;;;;5116795;28;20074;-65
2023/01/29 05:24:14;;;;;;;84.80;40.30;;;1.30;99.90;;;;;;5116743;28;20031;-65
2023/01/29 05:29:26;;;;;;;90.80;40.28;;;1.20;99.90;;;;;;5116641;28;20040;-65
2023/01/29 05:31:52;;;;;;;96.53;42.67;;;1.20;99.90;;;;;;5116438;28;20031;-65
2023/01/29 05:34:18;;;;;;;87.40;41.95;;;1.20;99.90;;;;;;5116443;28;20038;-65
2023/01/29 05:36:44;;;;;;;89.97;41.85;;;1.20;99.90;;;;;;5116497;28;20512;-65
2023/01/29 05:39:10;;;;;;;96.72;42.95;;;1.00;99.90;;;;;;5116367;28;20474;-65
2023/01/29 05:41:36;;;;;;;86.75;40.25;;;1.10;99.90;;;;;;5116412;28;20057;-65
2023/01/29 05:44:02;;;;;;;92.68;41.35;;;1.10;99.90;;;;;;5116315;28;20015;-65
2023/01/29 05:46:28;;;;;;;87.90;41.03;;;1.10;99.90;;;;;;5116345;28;20028;-65
2023/01/29 05:48:54;;;;;;;86.70;39.40;;;1.10;99.90;;;;;;5116321;28;20073;-65
2023/01/29 05:51:20;;;;;;;86.13;41.08;;;1.10;99.90;;;;;;5116148;28;20106;-65
2023/01/29 05:53:46;;;;;;;81.07;39.80;;;1.10;99.90;;;;;;5115987;28;20457;-65
2023/01/29 05:56:12;;;;;;;88.18;40.72;;;1.30;99.90;;;;;;5116087;28;20054;-65
2023/01/29 05:58:39;;;;;;;87.32;41.55;;;1.20;99.90;;;;;;5115982;28;20090;-65
2023/01/29 06:01:19;;;;;;;83.78;40.13;;;1.20;99.90;;;;;;5115777;28;20069;-65
2023/01/29 06:03:46;;;;;;;92.00;41.95;;;1.10;99.90;;;;;;5114749;28;20031;-65
2023/01/29 06:06:12;;;;;;;90.40;39.90;;;1.20;99.90;;;;;;5115961;28;20035;-65
2023/01/29 06:08:38;;;;;;;82.50;40.83;;;1.30;99.90;;;;;;5115879;28;20047;-65
2023/01/29 06:11:08;;;;;;;88.20;41.30;;;1.30;99.90;;;;;;5115815;28;20051;-65
2023/01/29 06:13:34;;;;;;;88.30;41.95;;;1.30;99.90;;;;;;5115671;28;20493;-65
2023/01/29 06:16:03;;;;;;;88.03;41.35;;;1.30;99.90;;;;;;5115747;28;20023;-65
2023/01/29 06:18:29;;;;;;;90.88;42.33;;;1.30;99.90;;;;;;5115460;28;20039;-65
2023/01/29 06:20:58;;;;;;;92.60;41.97;;;1.40;99.90;;;;;;5115709;28;20472;-65
2023/01/29 06:23:24;;;;;;;90.57;43.10;;;1.30;99.90;;;;;;5115725;28;20377;-65
2023/01/29 06:25:50;;;;;;;90.68;43.40;;;1.30;99.90;;;;;;5115357;28;20041;-65
2023/01/29 06:28:16;;;;;;;89.05;41.15;;;1.40;99.90;;;;;;5115506;28;20027;-65
2023/01/29 06:30:42;;;;;;;95.25;43.65;;;1.50;99.90;;;;;;5115700;28;20024;-65
2023/01/29 06:33:08;;;;;;;97.95;44.05;;;1.50;99.90;;;;;;5115396;28;20027;-65
2023/01/29 06:35:34;;;;;;;103.53;45.10;;;1.40;99.90;;;;;;5115294;28;20381;-65
2023/01/29 06:37:59;;;;;;;119.07;48.53;;;1.40;99.90;;;;;;5115266;28;20027;-65
2023/01/29 06:40:25;;;;;;;113.55;49.10;;;1.50;99.90;;;;;;5115138;28;20106;-65
2023/01/29 06:42:51;;;;;;;109.70;47.55;;;1.40;99.90;;;;;;5115295;28;20026;-65
2023/01/29 06:45:17;;;;;;;109.47;46.85;;;1.40;99.90;;;;;;5115279;28;20034;-65
2023/01/29 06:47:43;;;;;;;105.55;47.42;;;1.40;99.90;;;;;;5115211;28;20063;-65
2023/01/29 06:50:10;;;;;;;107.65;47.97;;;1.50;99.90;;;;;;5114711;28;20027;-65
2023/01/29 06:52:36;;;;;;;111.47;48.15;;;1.50;99.90;;;;;;5115193;28;20457;-65
2023/01/29 06:55:02;;;;;;;118.00;50.67;;;1.50;99.90;;;;;;5115109;28;20032;-65
2023/01/29 06:57:28;;;;;;;114.15;49.92;;;1.50;99.90;;;;;;5114913;28;20067;-65
2023/01/29 06:59:54;;;;;;;120.50;52.03;;;1.60;99.90;;;;;;5115175;28;20059;-65
2023/01/29 07:02:20;;;;;;;119.32;51.20;;;1.50;99.90;;;;;;5114813;28;20040;-65
2023/01/29 07:04:46;;;;;;;120.20;50.90;;;1.50;99.90;;;;;;5114939;28;20038;-65
2023/01/29 07:07:12;;;;;;;113.97;51.20;;;1.40;99.90;;;;;;5115050;28;20019;-65
2023/01/29 07:09:42;;;;;;;110.22;47.63;;;1.40;99.90;;;;;;5114773;28;20051;-65
2023/01/29 07:12:09;;;;;;;106.28;48.60;;;1.40;99.90;;;;;;5115059;28;20031;-65
2023/01/29 07:14:35;;;;;;;97.93;46.35;;;1.50;99.90;;;;;;5114976;28;20030;-65
2023/01/29 07:17:01;;;;;;;100.55;44.90;;;1.60;99.90;;;;;;5114628;28;20058;-65
2023/01/29 07:19:27;;;;;;;115.20;52.38;;;1.60;99.90;;;;;;5114939;28;20024;-65
2023/01/29 07:21:53;;;;;;;108.43;49.83;;;1.60;99.90;;;;;;5114854;28;20028;-65
2023/01/29 07:24:19;;;;;;;110.47;48.55;;;1.70;99.90;;;;;;5114587;28;20045;-65
2023/01/29 07:26:45;;;;;;;98.40;47.05;;;1.70;99.90;;;;;;5114735;28;20061;-65
2023/01/29 07:29:11;;;;;;;104.10;45.22;;;1.70;99.90;;;;;;5113559;28;20085;-65
2023/01/29 07:31:37;;;;;;;111.13;46.25;;;1.70;99.90;;;;;;5114740;28;20020;-65
2023/01/29 07:34:03;;;;;;;108.93;47.92;;;1.70;99.90;;;;;;5114727;28;20465;-65
2023/01/29 07:36:29;;;;;;;99.82;46.15;;;1.70;99.90;;;;;;5114649;28;20031;-65
2023/01/29 07:38:55;;;;;;;115.88;51.15;;;1.60;99.90;;;;;;5114691;28;20373;-65
2023/01/29 07:41:21;;;;;;;122.60;52.05;;;1.60;99.90;;;;;;5114652;28;20026;-65
2023/01/29 07:43:47;;;;;;;104.85;43.50;;;1.60;99.90;;;;;;5114624;28;20474;-65
2023/01/29 07:46:13;;;;;;;102.30;46.13;;;1.70;99.90;;;;;;5114610;28;20035;-65
2023/01/29 07:48:39;;;;;;;109.50;46.85;;;1.70;99.90;;;;;;5114632;28;20065;-65
2023/01/29 07:51:05;;;;;;;105.03;48.08;;;1.60;99.90;;;;;;5114530;28;20511;-65
2023/01/29 07:53:31;;;;;;;102.93;48.45;;;1.60;99.90;;;;;;5114423;28;20396;-65
2023/01/29 07:55:57;;;;;;;113.57;47.80;;;1.70;99.90;;;;;;5114641;28;20024;-65
2023/01/29 07:58:23;;;;;;;108.78;47.25;;;1.70;99.90;;;;;;5114536;28;20072;-65
2023/01/29 08:00:49;;;;;;;115.30;50.08;;;1.60;99.90;;;;;;5114303;28;20024;-65
2023/01/29 08:03:17;;;;;;;122.05;53.00;;;1.60;99.90;;;;;;5117259;28;20269;-65
2023/01/29 08:05:44;;;;;;;120.85;49.97;;;1.70;99.90;;;;;;5118238;28;20032;-65
2023/01/29 08:08:10;;;;;;;117.70;53.58;;;1.60;99.90;;;;;;5118172;28;20062;-65
2023/01/29 08:10:37;;;;;;;114.32;50.38;;;1.60;99.90;;;;;;5118215;28;20020;-65
2023/01/29 08:13:04;;;;;;;115.53;52.63;;;1.70;99.90;;;;;;5118218;28;20036;-65
2023/01/29 08:15:31;;;;;;;143.20;65.70;;;1.70;99.90;;;;;;5118072;28;20136;-65
2023/01/29 08:17:57;;;;;;;127.05;55.88;;;1.60;99.90;;;;;;5116668;28;20024;-65
2023/01/29 08:20:23;;;;;;;121.82;54.78;;;1.70;99.90;;;;;;5118014;28;20024;-65
2023/01/29 08:22:49;;;;;;;120.35;55.60;;;1.70;99.90;;;;;;5117891;28;20431;-65
2023/01/29 08:25:15;;;;;;;116.93;51.38;;;1.70;99.90;;;;;;5117909;28;20020;-65
2023/01/29 08:27:41;;;;;;;126.38;55.03;;;1.70;99.90;;;;;;5117983;28;20036;-65
2023/01/29 08:30:09;;;;;;;136.00;59.60;;;1.80;99.90;;;;;;5117672;28;20051;-65
2023/01/29 08:32:35;;;;;;;129.18;55.97;;;1.70;99.90;;;;;;5117652;27;20035;-65
2023/01/29 08:35:01;;;;;;;133.73;58.22;;;1.70;99.90;;;;;;5117795;27;20028;-65
2023/01/29 08:37:27;;;;;;;123.78;56.22;;;1.80;99.90;;;;;;5117658;28;20049;-65
2023/01/29 08:39:53;;;;;;;120.18;53.35;;;1.70;99.90;;;;;;5117717;28;20024;-65
2023/01/29 08:42:19;;;;;;;125.78;52.47;;;1.80;99.90;;;;;;5117616;28;20461;-65
2023/01/29 08:44:45;;;;;;;115.35;50.42;;;1.80;99.90;;;;;;5117691;28;20051;-65
2023/01/29 08:47:11;;;;;;;117.45;52.33;;;1.90;99.90;;;;;;5117495;28;20160;-65
2023/01/29 08:49:37;;;;;;;113.18;51.70;;;1.90;99.90;;;;;;5117322;28;20385;-65
2023/01/29 08:52:03;;;;;;;122.82;53.80;;;1.80;99.90;;;;;;5117416;28;20050;-65
2023/01/29 08:54:28;;;;;;;132.23;57.90;;;1.80;99.90;;;;;;5117296;28;20055;-65
2023/01/29 08:56:54;;;;;;;126.10;53.85;;;1.80;99.90;;;;;;5117303;28;20076;-65
2023/01/29 08:59:21;;;;;;;121.80;51.95;;;1.90;99.90;;;;;;5117139;28;20047;-65
2023/01/29 09:01:47;;;;;;;135.65;56.03;;;1.90;99.90;;;;;;5117042;28;20036;-65
2023/01/29 09:04:13;;;;;;;127.80;54.05;;;2.00;99.90;;;;;;5116993;28;20448;-65
2023/01/29 09:06:39;;;;;;;150.52;64.15;;;2.00;99.90;;;;;;5117082;28;20066;-65
2023/01/29 09:09:05;;;;;;;138.13;60.60;;;2.00;99.90;;;;;;5116925;28;20023;-65
2023/01/29 09:11:31;;;;;;;143.32;62.75;;;2.00;99.90;;;;;;5117012;28;20066;-65
2023/01/29 09:13:57;;;;;;;178.98;74.10;;;2.00;99.90;;;;;;5116548;28;20032;-65
2023/01/29 09:16:23;;;;;;;160.77;67.07;;;2.00;99.90;;;;;;5116720;28;20092;-65
2023/01/29 09:18:49;;;;;;;130.90;57.78;;;2.10;99.90;;;;;;5116645;28;20087;-65
2023/01/29 09:21:15;;;;;;;137.98;58.53;;;2.10;99.90;;;;;;5116790;28;20499;-65
2023/01/29 09:23:40;;;;;;;154.35;64.35;;;2.10;99.90;;;;;;5116765;28;20083;-65
2023/01/29 09:26:07;;;;;;;164.32;69.82;;;2.10;99.90;;;;;;5116665;28;20125;-65
2023/01/29 09:28:33;;;;;;;124.45;56.15;;;1.90;99.90;;;;;;5116691;28;20359;-65
2023/01/29 09:31:02;;;;;;;148.38;69.53;;;2.00;99.90;;;;;;5116603;28;20031;-65
2023/01/29 09:33:29;;;;;;;141.73;64.63;;;2.00;99.90;;;;;;5116528;28;20124;-65
2023/01/29 09:35:56;;;;;;;136.43;60.42;;;2.10;99.90;;;;;;5116448;28;20107;-65
2023/01/29 09:38:22;;;;;;;137.05;64.43;;;2.10;99.90;;;;;;5116364;28;20084;-65
2023/01/29 09:41:18;;;;;;;137.20;63.83;;;2.10;99.90;;;;;;5116296;28;20024;-65
2023/01/29 09:43:58;;;;;;;140.63;63.88;;;2.10;99.90;;;;;;5116290;28;20030;-65
2023/01/29 09:46:42;;;;;;;141.80;65.97;;;2.00;99.90;;;;;;5116368;28;20027;-65
2023/01/29 09:49:23;;;;;;;119.55;55.85;;;2.10;99.90;;;;;;5116111;28;20016;-65
2023/01/29 09:51:59;;;;;;;133.30;59.85;;;2.10;99.90;;;;;;5116125;28;20036;-65
2023/01/29 09:54:32;;;;;;;109.00;50.90;;;2.10;99.90;;;;;;5116080;28;20026;-65
2023/01/29 09:56:59;;;;;;;105.82;50.40;;;2.10;99.90;;;;;;5115963;28;20032;-65
2023/01/29 09:59:31;;;;;;;104.63;49.85;;;2.10;99.90;;;;;;5115962;28;20023;-65
2023/01/29 10:02:32;;;;;;;106.40;47.30;;;2.10;99.90;;;;;;5115590;28;20043;-65
2023/01/29 10:05:11;;;;;;;111.55;52.60;;;2.20;99.90;;;;;;5032927;28;20032;-65
2023/01/29 10:07:59;;;;;;;111.32;55.10;;;2.20;99.90;;;;;;5106585;28;20039;-65
2023/01/29 10:10:43;;;;;;;107.60;51.95;;;2.10;99.90;;;;;;5115840;28;20035;-65
2023/01/29 10:13:31;;;;;;;100.88;49.72;;;2.10;99.90;;;;;;5115658;28;20039;-65
2023/01/29 10:16:03;;;;;;;105.68;47.63;;;2.20;99.90;;;;;;5115934;28;20028;-65
2023/01/29 10:18:44;;;;;;;102.30;47.35;;;2.20;99.90;;;;;;5115509;28;20031;-65
2023/01/29 10:21:22;;;;;;;98.63;47.20;;;2.20;99.90;;;;;;5115626;28;20034;-65
2023/01/29 10:24:00;;;;;;;97.07;46.08;;;2.30;99.90;;;;;;5115458;28;20030;-65
2023/01/29 10:26:28;;;;;;;134.02;70.07;;;2.20;99.90;;;;;;5115023;28;20115;-65
2023/01/29 10:28:59;;;;;;;121.57;58.25;;;2.30;99.90;;;;;;5115413;28;20032;-65
2023/01/29 10:31:33;;;;;;;110.50;54.20;;;2.30;99.90;;;;;;5115611;28;20020;-65
2023/01/29 10:34:27;;;;;;;104.30;47.13;;;2.30;99.90;;;;;;5115485;28;20039;-65
2023/01/29 10:36:55;;;;;;;110.15;50.45;;;2.50;99.90;;;;;;5115336;28;20039;-65
2023/01/29 10:39:25;;;;;;;124.70;54.95;;;2.40;99.90;;;;;;5115332;28;20370;-65
2023/01/29 10:42:13;;;;;;;130.27;58.47;;;2.40;99.90;;;;;;5115374;28;20080;-65
2023/01/29 10:45:02;;;;;;;123.03;55.63;;;2.40;99.90;;;;;;5115258;28;20446;-65
2023/01/29 10:47:43;;;;;;;111.63;50.55;;;2.50;99.90;;;;;;5115209;28;20031;-65
2023/01/29 10:50:21;;;;;;;106.63;48.60;;;2.60;99.90;;;;;;5115179;28;20031;-65
2023/01/29 10:53:18;;;;;;;109.03;48.13;;;2.50;99.90;;;;;;5115027;28;20450;-65
2023/01/29 10:55:53;;;;;;;115.82;53.28;;;2.40;99.90;;;;;;5115331;28;20107;-65
2023/01/29 10:58:42;;;;;;;127.68;57.95;;;2.50;99.90;;;;;;5114953;28;20046;-65
2023/01/29 11:01:11;;;;;;;102.43;50.28;;;2.60;99.90;;;;;;5114881;28;20078;-65
2023/01/29 11:03:37;;;;;;;108.97;50.90;;;2.40;99.90;;;;;;5115053;28;20048;-65
2023/01/29 11:06:22;;;;;;;126.28;55.58;;;2.50;99.90;;;;;;5114933;28;20469;-65
2023/01/29 11:09:19;;;;;;;128.63;55.90;;;2.50;99.90;;;;;;5114945;28;20054;-65
2023/01/29 11:11:53;;;;;;;128.27;57.53;;;2.50;99.90;;;;;;5114971;28;20423;-65
2023/01/29 11:14:41;;;;;;;123.95;53.38;;;2.50;99.90;;;;;;5114880;28;20212;-65
2023/01/29 11:17:17;;;;;;;113.85;51.17;;;2.60;99.90;;;;;;5114684;28;20039;-65
2023/01/29 11:19:45;;;;;;;109.55;49.63;;;2.60;99.90;;;;;;5114843;28;20087;-65
2023/01/29 11:22:18;;;;;;;112.53;53.40;;;2.50;99.90;;;;;;5114845;28;20437;-65
2023/01/29 11:24:45;;;;;;;113.45;53.08;;;2.60;99.90;;;;;;5114812;28;20019;-65
2023/01/29 11:27:28;;;;;;;100.32;47.22;;;2.60;99.90;;;;;;5114743;28;20036;-65
2023/01/29 11:29:55;;;;;;;102.57;47.20;;;2.60;99.90;;;;;;5114773;28;20044;-65
2023/01/29 11:32:20;;;;;;;119.22;55.50;;;2.50;99.90;;;;;;5114638;28;20497;-65
2023/01/29 11:35:10;;;;;;;110.35;51.20;;;2.60;99.90;;;;;;5114750;28;20103;-65
2023/01/29 11:37:42;;;;;;;108.07;49.43;;;2.60;99.90;;;;;;5118170;28;20039;-65
2023/01/29 11:40:35;;;;;;;104.43;48.22;;;2.60;99.90;;;;;;5118833;28;20263;-65
2023/01/29 11:43:11;;;;;;;118.18;56.63;;;2.60;99.90;;;;;;5119036;28;20475;-65
2023/01/29 11:45:39;;;;;;;105.57;48.50;;;2.60;99.90;;;;;;5118748;28;20024;-65
2023/01/29 11:48:19;;;;;;;91.65;42.63;;;2.50;99.90;;;;;;5118471;28;20039;-65
2023/01/29 11:50:55;;;;;;;99.43;44.93;;;2.60;99.90;;;;;;5118637;28;20112;-65
2023/01/29 11:53:39;;;;;;;179.88;72.03;;;2.50;99.90;;;;;;5118437;28;20492;-65
2023/01/29 11:56:32;;;;;;;117.18;52.35;;;2.40;99.90;;;;;;5118549;28;20036;-65
2023/01/29 11:59:01;;;;;;;112.45;50.42;;;2.50;99.90;;;;;;5108639;28;20044;-65
2023/01/29 12:01:35;;;;;;;112.47;49.08;;;2.50;99.90;;;;;;5118170;28;20060;-65
2023/01/29 12:04:01;;;;;;;114.32;51.22;;;2.50;99.90;;;;;;5118273;28;20024;-65
2023/01/29 12:06:35;;;;;;;126.65;56.08;;;2.50;99.90;;;;;;5118333;28;20445;-65
2023/01/29 12:09:08;;;;;;;116.13;52.05;;;2.50;99.90;;;;;;5118152;28;20016;-65
2023/01/29 12:11:34;;;;;;;126.22;53.08;;;2.60;99.90;;;;;;5118240;28;20028;-65
2023/01/29 12:14:04;;;;;;;111.30;49.97;;;2.60;99.90;;;;;;5118093;28;20031;-65
2023/01/29 12:16:48;;;;;;;114.10;50.15;;;2.60;99.90;;;;;;5118016;28;20020;-65
2023/01/29 12:19:42;;;;;;;116.28;50.53;;;2.50;99.90;;;;;;5118054;28;20032;-65
2023/01/29 12:22:39;;;;;;;114.85;51.28;;;2.60;99.90;;;;;;5117805;28;20034;-65
2023/01/29 12:25:15;;;;;;;114.10;51.50;;;2.70;99.90;;;;;;5117932;28;20381;-65
2023/01/29 12:28:11;;;;;;;128.23;54.33;;;2.70;99.90;;;;;;5097396;28;20149;-65
2023/01/29 12:30:58;;;;;;;117.82;51.40;;;2.60;99.90;;;;;;5097287;28;20567;-65
2023/01/29 12:33:47;;;;;;;112.07;51.58;;;2.60;99.90;;;;;;5075841;28;20070;-65
2023/01/29 12:36:55;;;;;;;133.70;58.15;;;2.50;99.90;;;;;;5097541;28;20032;-65
2023/01/29 12:39:21;;;;;;;126.00;54.80;;;2.50;99.90;;;;;;5091512;28;20055;-65
2023/01/29 12:41:57;;;;;;;123.07;55.63;;;2.50;99.90;;;;;;5097270;28;20024;-65
2023/01/29 12:44:36;;;;;;;125.47;56.13;;;2.30;99.90;;;;;;5097119;28;20081;-65
2023/01/29 12:47:05;;;;;;;134.20;60.22;;;2.30;99.90;;;;;;5096819;28;20046;-65
2023/01/29 12:49:38;;;;;;;134.38;56.35;;;2.30;99.90;;;;;;5096506;28;20051;-65
2023/01/29 12:52:29;;;;;;;168.52;72.45;;;2.50;99.90;;;;;;5096991;28;20032;-65
2023/01/29 12:55:24;;;;;;;134.45;60.92;;;2.50;99.90;;;;;;5097049;28;20053;-65
2023/01/29 12:58:00;;;;;;;139.65;63.17;;;2.50;99.90;;;;;;5091141;28;20429;-65
2023/01/29 13:00:30;;;;;;;150.98;65.32;;;2.50;99.90;;;;;;5096844;28;20028;-65
2023/01/29 13:03:33;;;;;;;138.50;63.85;;;2.30;99.90;;;;;;5096565;28;20486;-65
2023/01/29 13:06:09;;;;;;;146.63;67.72;;;2.50;99.90;;;;;;5096658;28;20029;-65
2023/01/29 13:08:40;;;;;;;132.73;56.90;;;2.40;99.90;;;;;;5096703;28;20497;-65
2023/01/29 13:11:22;;;;;;;131.73;57.45;;;2.30;99.90;;;;;;5096649;28;20039;-65
2023/01/29 13:14:00;;;;;;;130.05;57.22;;;2.30;99.90;;;;;;5096599;28;20040;-65
2023/01/29 13:16:36;;;;;;;132.43;59.40;;;2.40;99.90;;;;;;5096431;28;20157;-65
2023/01/29 13:19:22;;;;;;;140.85;62.60;;;2.50;99.90;;;;;;5096586;28;20390;-65
2023/01/29 13:21:51;;;;;;;139.43;62.25;;;2.50;99.90;;;;;;5096327;28;20063;-65
2023/01/29 13:24:21;;;;;;;145.15;63.53;;;2.50;99.90;;;;;;5096251;28;20027;-65
2023/01/29 13:26:48;;;;;;;146.52;65.82;;;2.60;99.90;;;;;;5109732;28;20015;-65
2023/01/29 13:29:23;;;;;;;134.15;59.40;;;2.60;99.90;;;;;;5116703;28;20053;-65
2023/01/29 13:31:52;;;;;;;115.40;51.58;;;2.50;99.90;;;;;;5116669;28;20027;-65